Time;durP1;ratioP1;P1;durP2;ratioP2;P2;SDS_P1;SDS_P2;PMS_P1;PMS_P2;Temp;Humidity;BMP_temperature;BMP_pressure;BME280_temperature;BME280_humidity;BME280_pressure;Samples;Min_cycle;Max_cycle;Signal;HPM_P1;HPM_P2
2021/05/27 00:02:20;;;;;;;6.68;3.90;;;14.00;72.70;;;;;;4864209;29;20021;-74
2021/05/27 00:04:46;;;;;;;9.07;4.35;;;14.00;72.90;;;;;;4865230;29;20054;-74
2021/05/27 00:07:12;;;;;;;6.13;4.07;;;14.00;73.00;;;;;;4893839;29;20064;-72
2021/05/27 00:09:38;;;;;;;7.93;3.92;;;14.00;72.80;;;;;;4869222;29;20033;-73
2021/05/27 00:12:04;;;;;;;7.57;4.20;;;14.00;72.70;;;;;;4883747;29;20068;-73
2021/05/27 00:14:30;;;;;;;6.80;4.82;;;14.00;72.80;;;;;;4882609;29;20106;-72
2021/05/27 00:16:56;;;;;;;7.07;4.55;;;14.00;73.30;;;;;;4873455;29;20021;-73
2021/05/27 00:19:22;;;;;;;7.25;3.92;;;13.90;73.00;;;;;;4880318;29;20056;-73
2021/05/27 00:21:48;;;;;;;7.47;4.18;;;13.90;72.80;;;;;;4882147;29;20048;-73
2021/05/27 00:24:13;;;;;;;6.35;4.10;;;13.90;72.90;;;;;;4888867;29;20049;-73
2021/05/27 00:26:41;;;;;;;8.20;4.20;;;13.90;72.60;;;;;;4885485;29;20023;-72
2021/05/27 00:29:08;;;;;;;6.35;4.18;;;13.90;72.50;;;;;;4902140;29;20048;-73
2021/05/27 00:31:34;;;;;;;7.80;4.60;;;13.90;72.50;;;;;;4886473;29;20568;-72
2021/05/27 00:34:00;;;;;;;6.95;4.88;;;13.90;72.70;;;;;;4876586;29;20033;-73
2021/05/27 00:36:26;;;;;;;9.95;4.93;;;13.90;72.60;;;;;;4892804;29;20029;-73
2021/05/27 00:38:52;;;;;;;6.90;5.00;;;13.90;72.60;;;;;;4893519;29;20552;-73
2021/05/27 00:41:18;;;;;;;7.88;5.10;;;13.90;72.40;;;;;;4880998;29;20051;-73
2021/05/27 00:43:43;;;;;;;6.43;4.30;;;13.90;72.60;;;;;;4879042;29;20049;-73
2021/05/27 00:46:09;;;;;;;7.85;4.53;;;13.90;72.70;;;;;;4880817;29;20041;-73
2021/05/27 00:51:19;;;;;;;8.07;4.72;;;13.90;72.50;;;;;;4867756;29;20165;-73
2021/05/27 00:53:45;;;;;;;8.27;4.57;;;13.90;72.30;;;;;;4866147;29;20057;-73
2021/05/27 00:56:11;;;;;;;7.03;4.07;;;13.90;72.20;;;;;;4886108;29;20112;-73
2021/05/27 00:58:38;;;;;;;7.57;4.40;;;13.90;72.20;;;;;;4885411;29;20413;-73
2021/05/27 01:01:04;;;;;;;8.65;5.07;;;13.90;72.20;;;;;;4886160;29;20511;-73
2021/05/27 01:03:30;;;;;;;7.18;4.40;;;13.80;72.10;;;;;;4873098;29;20101;-73
2021/05/27 01:05:56;;;;;;;8.38;4.43;;;13.80;73.20;;;;;;4877438;29;20073;-73
2021/05/27 01:08:22;;;;;;;8.15;5.15;;;13.80;74.40;;;;;;4868464;29;20068;-73
2021/05/27 01:10:48;;;;;;;10.02;5.65;;;13.80;75.60;;;;;;4875828;29;20033;-73
2021/05/27 01:13:14;;;;;;;10.63;5.03;;;13.80;75.30;;;;;;4867131;29;20029;-73
2021/05/27 01:15:40;;;;;;;9.10;4.78;;;13.80;75.20;;;;;;4867021;29;20022;-73
2021/05/27 01:18:08;;;;;;;7.72;4.55;;;13.70;74.40;;;;;;4866843;29;20044;-73
2021/05/27 01:20:35;;;;;;;7.95;4.38;;;13.70;74.40;;;;;;4867091;29;20033;-73
2021/05/27 01:23:02;;;;;;;9.68;4.60;;;13.70;74.60;;;;;;4868761;29;20032;-73
2021/05/27 01:25:28;;;;;;;8.30;4.63;;;13.70;75.10;;;;;;4885711;29;20033;-73
2021/05/27 01:27:54;;;;;;;9.13;4.70;;;13.70;75.50;;;;;;4870859;29;20026;-74
2021/05/27 01:30:20;;;;;;;7.68;4.60;;;13.70;75.80;;;;;;4884375;29;20512;-73
2021/05/27 01:32:46;;;;;;;8.60;4.78;;;13.70;75.70;;;;;;4892757;29;20029;-74
2021/05/27 01:35:19;;;;;;;6.97;3.72;;;13.70;75.20;;;;;;4867901;29;20029;-74
2021/05/27 01:37:46;;;;;;;10.68;5.18;;;13.60;75.00;;;;;;4878766;29;20105;-74
2021/05/27 01:40:14;;;;;;;8.07;4.20;;;13.70;76.00;;;;;;4866895;29;20108;-74
2021/05/27 01:42:39;;;;;;;6.85;4.43;;;13.60;75.40;;;;;;4886534;29;20098;-74
2021/05/27 01:45:06;;;;;;;8.07;4.63;;;13.60;74.70;;;;;;4894283;29;20041;-74
2021/05/27 01:47:32;;;;;;;9.15;5.38;;;13.60;74.70;;;;;;4881532;29;20104;-73
2021/05/27 01:49:58;;;;;;;8.20;6.28;;;13.60;75.40;;;;;;4866404;29;20055;-74
2021/05/27 01:52:23;;;;;;;10.13;5.80;;;13.60;75.20;;;;;;4879093;29;20504;-74
2021/05/27 01:54:49;;;;;;;7.82;4.97;;;13.60;75.10;;;;;;4885005;29;20033;-74
2021/05/27 01:57:15;;;;;;;7.45;4.75;;;13.60;74.90;;;;;;4872386;29;20168;-74
2021/05/27 01:59:41;;;;;;;6.97;4.47;;;13.60;75.30;;;;;;4874014;29;20044;-74
2021/05/27 02:02:07;;;;;;;7.15;5.07;;;13.60;74.70;;;;;;4865928;29;20053;-74
2021/05/27 02:04:33;;;;;;;7.65;5.28;;;13.60;74.30;;;;;;4872130;29;20049;-74
2021/05/27 02:07:08;;;;;;;7.15;4.63;;;13.60;74.30;;;;;;4867292;29;20034;-73
2021/05/27 02:09:34;;;;;;;8.98;5.30;;;13.60;74.10;;;;;;4877338;29;20088;-74
2021/05/27 02:11:59;;;;;;;7.10;4.55;;;13.60;74.00;;;;;;4866141;29;20105;-73
2021/05/27 02:14:25;;;;;;;8.93;4.63;;;13.60;73.90;;;;;;4865891;29;20029;-74
2021/05/27 02:16:53;;;;;;;7.60;5.13;;;13.60;73.80;;;;;;4865789;29;20022;-73
2021/05/27 02:19:19;;;;;;;9.30;4.85;;;13.60;73.80;;;;;;4866067;29;20029;-74
2021/05/27 02:21:45;;;;;;;7.65;4.70;;;13.60;73.90;;;;;;4865943;29;20549;-74
2021/05/27 02:24:10;;;;;;;9.45;4.95;;;13.60;73.80;;;;;;4865859;29;20037;-73
2021/05/27 02:26:36;;;;;;;10.00;4.82;;;13.60;74.10;;;;;;4869742;29;20117;-73
2021/05/27 02:29:03;;;;;;;8.55;5.05;;;13.50;73.80;;;;;;4883803;29;20033;-73
2021/05/27 02:31:29;;;;;;;7.38;4.90;;;13.60;73.80;;;;;;4881182;29;20018;-74
2021/05/27 02:33:55;;;;;;;6.97;5.07;;;13.60;73.70;;;;;;4877493;29;20032;-74
2021/05/27 02:36:21;;;;;;;8.55;4.88;;;13.50;73.70;;;;;;4883899;29;20021;-73
2021/05/27 02:38:47;;;;;;;7.32;5.22;;;13.50;73.90;;;;;;4883831;29;20037;-73
2021/05/27 02:41:13;;;;;;;6.55;4.47;;;13.50;73.80;;;;;;4875931;29;20036;-73
2021/05/27 02:43:39;;;;;;;7.32;4.95;;;13.50;73.50;;;;;;4875337;29;20122;-73
2021/05/27 02:46:05;;;;;;;8.00;4.80;;;13.60;73.60;;;;;;4885383;29;20060;-73
2021/05/27 02:48:32;;;;;;;6.97;5.03;;;13.50;73.60;;;;;;4883001;29;20037;-74
2021/05/27 02:50:58;;;;;;;7.60;4.70;;;13.50;73.40;;;;;;4873835;29;20025;-74
2021/05/27 02:53:24;;;;;;;6.47;4.88;;;13.60;73.60;;;;;;4865212;29;20034;-74
2021/05/27 02:55:51;;;;;;;7.38;5.13;;;13.50;73.40;;;;;;4867966;29;20084;-73
2021/05/27 02:58:17;;;;;;;9.95;5.53;;;13.60;73.40;;;;;;4874578;29;20025;-73
2021/05/27 03:00:43;;;;;;;7.30;5.40;;;13.60;73.70;;;;;;4864832;29;20049;-73
2021/05/27 03:03:09;;;;;;;9.27;5.95;;;13.50;73.50;;;;;;4866153;29;20074;-73
2021/05/27 03:05:35;;;;;;;7.18;4.93;;;13.60;73.40;;;;;;4880171;29;20076;-73
2021/05/27 03:08:00;;;;;;;8.43;4.88;;;13.50;73.30;;;;;;4879521;29;20037;-74
2021/05/27 03:10:26;;;;;;;8.00;5.78;;;13.50;73.20;;;;;;4872301;29;20026;-73
2021/05/27 03:12:52;;;;;;;9.15;5.60;;;13.50;73.10;;;;;;4880416;29;20040;-74
2021/05/27 03:15:18;;;;;;;8.00;5.53;;;13.50;73.10;;;;;;4875721;29;20036;-74
2021/05/27 03:17:44;;;;;;;11.00;6.20;;;13.50;73.30;;;;;;4865913;29;20029;-73
2021/05/27 03:20:12;;;;;;;10.57;5.47;;;13.50;73.20;;;;;;4864727;29;20021;-74
2021/05/27 03:22:38;;;;;;;8.80;5.88;;;13.50;73.20;;;;;;4877088;29;20029;-74
2021/05/27 03:25:07;;;;;;;9.55;5.30;;;13.50;73.70;;;;;;4848268;29;20044;-74
2021/05/27 03:27:33;;;;;;;7.57;5.25;;;13.50;73.60;;;;;;4864611;29;20037;-74
2021/05/27 03:29:59;;;;;;;6.97;5.22;;;13.50;73.40;;;;;;4871325;29;20040;-74
2021/05/27 03:32:24;;;;;;;7.93;5.28;;;13.40;73.10;;;;;;4883176;29;20029;-73
2021/05/27 03:34:50;;;;;;;8.18;4.90;;;13.40;73.00;;;;;;4875555;29;20032;-74
2021/05/27 03:37:16;;;;;;;7.95;5.00;;;13.40;73.00;;;;;;4883280;29;20029;-74
2021/05/27 03:40:10;;;;;;;7.70;4.70;;;13.40;73.00;;;;;;4867932;29;20064;-73
2021/05/27 03:42:28;;;;;;;7.47;4.45;;;13.40;73.00;;;;;;4866983;29;20037;-74
2021/05/27 03:44:53;;;;;;;10.25;4.80;;;13.30;72.90;;;;;;4882821;29;20445;-74
2021/05/27 03:47:19;;;;;;;8.75;5.15;;;13.30;72.90;;;;;;4882282;29;20079;-74
2021/05/27 03:49:45;;;;;;;8.30;4.47;;;13.30;72.90;;;;;;4882736;29;20088;-74
2021/05/27 03:52:11;;;;;;;7.32;4.68;;;13.30;72.90;;;;;;4872991;29;20033;-74
2021/05/27 03:54:36;;;;;;;7.35;4.80;;;13.30;72.90;;;;;;4868131;29;20090;-74
2021/05/27 03:57:02;;;;;;;6.65;4.47;;;13.30;72.90;;;;;;4880564;29;20039;-74
2021/05/27 04:02:12;;;;;;;7.15;4.65;;;13.30;72.90;;;;;;4874752;29;20045;-73
2021/05/27 04:07:25;;;;;;;8.13;5.05;;;13.30;72.90;;;;;;4874027;29;20055;-73
2021/05/27 04:09:51;;;;;;;8.65;5.32;;;13.20;72.90;;;;;;4882593;29;20032;-74
2021/05/27 04:17:45;;;;;;;8.90;5.30;;;13.20;72.80;;;;;;4884252;29;20039;-73
2021/05/27 04:20:12;;;;;;;8.43;5.72;;;13.20;72.80;;;;;;4867980;29;20053;-73
2021/05/27 04:22:41;;;;;;;8.35;5.53;;;13.20;72.90;;;;;;4867846;29;20485;-74
2021/05/27 04:25:07;;;;;;;7.90;4.88;;;13.20;73.10;;;;;;4867908;29;20029;-74
2021/05/27 04:27:33;;;;;;;7.57;4.88;;;13.20;73.10;;;;;;4880415;29;20033;-73
2021/05/27 04:30:12;;;;;;;7.53;5.10;;;13.20;72.90;;;;;;4867331;29;20549;-73
2021/05/27 04:33:02;;;;;;;7.68;4.63;;;13.20;72.90;;;;;;4880959;29;20048;-74
2021/05/27 04:35:31;;;;;;;7.88;5.00;;;13.20;72.80;;;;;;4885115;29;20393;-73
2021/05/27 04:37:59;;;;;;;6.88;4.78;;;13.20;73.10;;;;;;4886530;29;20040;-74
2021/05/27 04:40:26;;;;;;;7.78;4.40;;;13.20;73.00;;;;;;4885979;29;20032;-74
2021/05/27 04:42:52;;;;;;;7.88;4.57;;;13.20;72.80;;;;;;4883898;29;20025;-74
2021/05/27 04:45:18;;;;;;;6.47;4.00;;;13.10;72.70;;;;;;4885738;29;20025;-74
2021/05/27 04:47:44;;;;;;;5.93;4.03;;;13.10;72.70;;;;;;4885614;29;20044;-74
2021/05/27 04:50:11;;;;;;;7.72;4.80;;;13.10;72.70;;;;;;4879849;29;20029;-73
2021/05/27 04:52:38;;;;;;;7.22;4.40;;;13.10;72.60;;;;;;4867592;29;20041;-73
2021/05/27 04:55:06;;;;;;;6.50;4.05;;;13.10;72.50;;;;;;4867158;29;20057;-77
2021/05/27 04:57:32;;;;;;;6.55;4.63;;;13.10;72.50;;;;;;4883714;29;20058;-70
2021/05/27 04:59:57;;;;;;;6.75;4.88;;;13.10;72.60;;;;;;4869615;29;20025;-71
2021/05/27 05:02:23;;;;;;;7.35;4.65;;;13.00;72.60;;;;;;4866928;29;20025;-71
2021/05/27 05:04:49;;;;;;;11.13;5.15;;;13.00;72.80;;;;;;4875755;29;20527;-71
2021/05/27 05:07:15;;;;;;;7.72;4.80;;;13.00;72.70;;;;;;4885412;29;20037;-70
2021/05/27 05:09:41;;;;;;;10.32;6.00;;;13.00;72.70;;;;;;4882292;29;20044;-70
2021/05/27 05:12:07;;;;;;;8.68;5.07;;;13.00;73.00;;;;;;4867229;29;20030;-68
2021/05/27 05:14:33;;;;;;;9.00;5.60;;;13.00;74.00;;;;;;4866834;29;20030;-70
2021/05/27 05:16:59;;;;;;;9.65;5.43;;;13.10;73.60;;;;;;4866638;29;20040;-68
2021/05/27 05:19:24;;;;;;;8.63;6.03;;;13.10;73.40;;;;;;4867271;29;20069;-68
2021/05/27 05:21:50;;;;;;;7.95;5.63;;;13.10;73.50;;;;;;4866655;29;20890;-68
2021/05/27 05:24:16;;;;;;;10.02;5.55;;;13.10;73.50;;;;;;4894670;29;20057;-68
2021/05/27 05:26:42;;;;;;;9.65;5.63;;;13.10;73.70;;;;;;4885281;29;20037;-70
2021/05/27 05:29:07;;;;;;;8.70;5.95;;;13.10;73.90;;;;;;4885107;29;20104;-70
2021/05/27 05:31:33;;;;;;;8.05;5.45;;;13.10;73.90;;;;;;4875912;29;20029;-70
2021/05/27 05:33:59;;;;;;;9.15;6.68;;;13.20;74.20;;;;;;4869186;29;20400;-71
2021/05/27 05:36:25;;;;;;;9.25;6.80;;;13.20;74.60;;;;;;4868663;29;20037;-71
2021/05/27 05:38:51;;;;;;;11.77;7.07;;;13.20;74.60;;;;;;4882394;29;20051;-71
2021/05/27 05:41:18;;;;;;;8.95;6.60;;;13.30;74.80;;;;;;4892614;29;20449;-71
2021/05/27 05:43:44;;;;;;;9.73;6.90;;;13.30;74.80;;;;;;4892009;29;20036;-71
2021/05/27 05:46:10;;;;;;;10.10;7.10;;;13.40;74.90;;;;;;4884938;29;20084;-71
2021/05/27 05:48:36;;;;;;;11.57;7.60;;;13.40;75.10;;;;;;4877597;29;20073;-70
2021/05/27 05:51:07;;;;;;;13.00;6.75;;;13.40;75.30;;;;;;4884360;29;20040;-70
2021/05/27 05:53:37;;;;;;;10.38;6.78;;;13.50;75.40;;;;;;4866407;29;20030;-71
2021/05/27 05:56:04;;;;;;;8.55;5.93;;;13.50;75.60;;;;;;4872296;29;20432;-70
2021/05/27 05:58:30;;;;;;;10.73;6.20;;;13.60;75.60;;;;;;4881785;29;20046;-71
2021/05/27 06:00:56;;;;;;;9.70;6.38;;;13.50;75.70;;;;;;4865516;29;20599;-71
2021/05/27 06:03:22;;;;;;;10.82;6.55;;;13.60;75.80;;;;;;4867256;29;20090;-71
2021/05/27 06:05:48;;;;;;;9.45;6.55;;;13.60;75.80;;;;;;4865895;29;20049;-72
2021/05/27 06:08:14;;;;;;;9.05;6.57;;;13.70;76.00;;;;;;4876281;29;20029;-71
2021/05/27 06:10:40;;;;;;;10.02;6.45;;;13.70;76.10;;;;;;4883417;29;20037;-71
2021/05/27 06:13:06;;;;;;;11.18;6.53;;;13.80;76.00;;;;;;4869068;29;20101;-71
2021/05/27 06:15:32;;;;;;;8.85;6.78;;;13.80;76.00;;;;;;4865809;29;20041;-72
2021/05/27 06:18:00;;;;;;;10.52;6.55;;;13.80;76.10;;;;;;4865756;29;20026;-72
2021/05/27 06:20:28;;;;;;;7.38;5.07;;;13.80;76.00;;;;;;4866199;29;20033;-72
2021/05/27 06:22:54;;;;;;;10.95;5.50;;;13.90;76.00;;;;;;4865730;29;20516;-70
2021/05/27 06:25:22;;;;;;;8.77;6.35;;;13.80;75.90;;;;;;4880763;29;20037;-71
2021/05/27 06:27:49;;;;;;;8.05;5.20;;;13.90;76.00;;;;;;4879819;29;20546;-71
2021/05/27 06:30:15;;;;;;;7.43;4.85;;;13.90;75.90;;;;;;4865668;29;20127;-72
2021/05/27 06:32:41;;;;;;;7.88;5.55;;;13.90;75.90;;;;;;4865392;29;20086;-72
2021/05/27 06:35:11;;;;;;;8.05;5.47;;;13.90;76.00;;;;;;4880502;29;20088;-72
2021/05/27 06:37:38;;;;;;;8.77;5.63;;;13.90;75.90;;;;;;4876151;29;20116;-72
2021/05/27 06:40:12;;;;;;;9.52;6.72;;;14.00;76.00;;;;;;4868094;29;20086;-72
2021/05/27 06:42:38;;;;;;;8.38;5.60;;;14.00;76.00;;;;;;4877545;29;20081;-71
2021/05/27 06:45:05;;;;;;;9.85;5.50;;;14.00;76.00;;;;;;4883622;29;20409;-71
2021/05/27 06:47:30;;;;;;;10.18;6.35;;;14.00;76.00;;;;;;4883338;29;20036;-72
2021/05/27 06:49:56;;;;;;;7.07;5.07;;;14.10;76.10;;;;;;4866510;29;20033;-71
2021/05/27 06:52:22;;;;;;;7.68;5.15;;;14.10;76.20;;;;;;4885825;29;20028;-72
2021/05/27 06:54:48;;;;;;;8.57;4.97;;;14.20;76.30;;;;;;4876601;29;20037;-72
2021/05/27 06:57:14;;;;;;;8.75;5.32;;;14.30;76.40;;;;;;4863137;29;20029;-72
2021/05/27 06:59:39;;;;;;;10.85;4.88;;;14.40;76.40;;;;;;4865158;29;20084;-72
2021/05/27 07:02:05;;;;;;;7.57;3.97;;;14.40;76.40;;;;;;4863691;29;20057;-72
2021/05/27 07:04:31;;;;;;;8.40;4.30;;;14.50;76.50;;;;;;4864867;29;20045;-72
2021/05/27 07:06:57;;;;;;;6.65;4.28;;;14.60;76.50;;;;;;4865230;29;20018;-72
2021/05/27 07:09:23;;;;;;;8.25;4.45;;;14.70;76.70;;;;;;4877745;29;20559;-72
2021/05/27 07:11:49;;;;;;;7.00;3.97;;;14.80;76.60;;;;;;4871826;29;20587;-72
2021/05/27 07:14:15;;;;;;;10.15;4.20;;;14.90;76.70;;;;;;4865295;29;20026;-72
2021/05/27 07:16:41;;;;;;;7.13;4.13;;;15.00;76.70;;;;;;4863620;29;20033;-73
2021/05/27 07:19:07;;;;;;;8.02;3.88;;;15.00;76.70;;;;;;4865447;29;20034;-72
2021/05/27 07:21:33;;;;;;;6.03;3.60;;;15.10;76.50;;;;;;4865343;29;20025;-72
2021/05/27 07:23:59;;;;;;;7.45;3.83;;;15.20;76.10;;;;;;4865293;29;20036;-72
2021/05/27 07:26:26;;;;;;;7.43;4.00;;;15.30;76.30;;;;;;4865115;29;20030;-72
2021/05/27 07:28:52;;;;;;;8.63;3.78;;;15.40;76.60;;;;;;4864869;29;20033;-72
2021/05/27 07:31:18;;;;;;;6.05;3.75;;;15.60;77.20;;;;;;4864809;29;20030;-72
2021/05/27 07:33:44;;;;;;;6.97;4.07;;;15.80;77.10;;;;;;4865185;29;20040;-72
2021/05/27 07:36:10;;;;;;;7.45;4.07;;;16.00;76.90;;;;;;4865087;29;20081;-72
2021/05/27 07:38:36;;;;;;;6.93;3.45;;;16.20;78.00;;;;;;4865050;29;20034;-72
2021/05/27 07:41:04;;;;;;;6.00;3.30;;;16.40;75.70;;;;;;4865042;29;20025;-72
2021/05/27 07:43:30;;;;;;;7.20;3.33;;;16.50;74.80;;;;;;4874163;29;20029;-72
2021/05/27 07:45:56;;;;;;;6.72;3.47;;;16.60;73.50;;;;;;4879678;29;20021;-73
2021/05/27 07:48:21;;;;;;;8.55;3.17;;;16.70;74.10;;;;;;4864736;29;20033;-72
2021/05/27 07:50:47;;;;;;;5.13;2.80;;;16.90;74.70;;;;;;4864928;29;20105;-72
2021/05/27 07:53:16;;;;;;;9.38;3.42;;;17.00;73.70;;;;;;4863701;29;20493;-72
2021/05/27 07:55:42;;;;;;;7.85;2.97;;;17.10;74.20;;;;;;4863424;29;20038;-72
2021/05/27 07:58:08;;;;;;;6.93;2.92;;;17.20;73.90;;;;;;4864845;29;20032;-72
2021/05/27 08:00:35;;;;;;;7.20;2.97;;;17.30;74.40;;;;;;4864630;29;20033;-73
2021/05/27 08:03:01;;;;;;;4.95;2.95;;;17.40;73.00;;;;;;4864652;29;20061;-73
2021/05/27 08:05:27;;;;;;;4.78;2.30;;;17.50;73.30;;;;;;4864678;29;20528;-72
2021/05/27 08:07:53;;;;;;;4.68;2.65;;;17.90;75.00;;;;;;4848245;29;20120;-73
2021/05/27 08:10:19;;;;;;;5.43;2.42;;;18.50;78.00;;;;;;4877536;29;20025;-72
2021/05/27 08:12:45;;;;;;;5.38;2.35;;;19.20;78.40;;;;;;4864906;29;20041;-73
2021/05/27 08:15:11;;;;;;;4.25;2.20;;;19.80;75.50;;;;;;4864481;29;20033;-72
2021/05/27 08:17:37;;;;;;;5.45;2.30;;;20.50;75.80;;;;;;4864576;29;20052;-73
2021/05/27 08:20:05;;;;;;;7.13;2.70;;;21.20;76.30;;;;;;4864593;29;20492;-73
2021/05/27 08:22:31;;;;;;;8.52;2.97;;;21.80;76.60;;;;;;4864458;29;20029;-73
2021/05/27 08:24:57;;;;;;;5.50;3.10;;;22.40;76.50;;;;;;4864525;29;20489;-73
2021/05/27 08:27:23;;;;;;;5.35;3.03;;;23.10;75.50;;;;;;4864796;29;20037;-73
2021/05/27 08:29:49;;;;;;;5.30;2.30;;;23.70;75.10;;;;;;4864496;29;20405;-73
2021/05/27 08:32:15;;;;;;;6.05;2.50;;;24.10;72.30;;;;;;4864369;29;20036;-73
2021/05/27 08:34:42;;;;;;;4.43;2.10;;;24.60;72.60;;;;;;4864346;29;20062;-71
2021/05/27 08:37:08;;;;;;;4.95;2.00;;;24.90;71.10;;;;;;4864482;29;20021;-71
2021/05/27 08:39:34;;;;;;;4.75;1.80;;;25.40;71.30;;;;;;4865088;29;20516;-70
2021/05/27 08:42:00;;;;;;;5.45;1.90;;;25.70;68.90;;;;;;4868238;29;20472;-70
2021/05/27 08:44:26;;;;;;;4.60;2.00;;;26.00;68.60;;;;;;4883875;29;20112;-70
2021/05/27 08:46:52;;;;;;;4.43;2.05;;;26.20;66.70;;;;;;4876224;29;20032;-70
2021/05/27 08:49:18;;;;;;;5.63;2.00;;;26.40;64.70;;;;;;4866463;29;20057;-70
2021/05/27 08:51:45;;;;;;;5.43;2.05;;;26.60;64.90;;;;;;4868025;29;20100;-70
2021/05/27 08:54:11;;;;;;;4.80;2.10;;;26.90;64.60;;;;;;4867891;29;20036;-70
2021/05/27 08:56:37;;;;;;;4.15;1.70;;;27.30;64.70;;;;;;4867757;29;20030;-70
2021/05/27 08:59:04;;;;;;;4.32;1.50;;;27.50;64.50;;;;;;4867556;29;20025;-71
2021/05/27 09:01:30;;;;;;;5.22;1.65;;;27.90;63.70;;;;;;4867722;29;20112;-70
2021/05/27 09:03:56;;;;;;;5.03;1.80;;;28.10;59.90;;;;;;4867352;29;20049;-71
2021/05/27 09:06:23;;;;;;;5.78;1.70;;;28.30;61.30;;;;;;4867686;29;20121;-71
2021/05/27 09:09:02;;;;;;;4.85;1.50;;;28.40;61.00;;;;;;4872533;29;20040;-70
2021/05/27 09:11:38;;;;;;;4.95;1.65;;;28.30;59.00;;;;;;4872631;29;20025;-72
2021/05/27 09:14:04;;;;;;;17.98;14.77;;;28.30;59.60;;;;;;4867465;29;20029;-71
2021/05/27 09:16:30;;;;;;;11.60;9.57;;;28.50;58.60;;;;;;4866943;29;20038;-72
2021/05/27 09:19:17;;;;;;;4.28;1.70;;;28.60;57.90;;;;;;4867385;29;20021;-73
2021/05/27 09:21:43;;;;;;;4.97;1.60;;;28.90;57.10;;;;;;4893299;29;20021;-71
2021/05/27 09:24:09;;;;;;;3.28;1.50;;;28.90;56.80;;;;;;4874139;29;20029;-70
2021/05/27 09:26:56;;;;;;;5.28;1.40;;;29.20;54.70;;;;;;4867075;29;20049;-70
2021/05/27 09:29:23;;;;;;;3.75;1.60;;;29.50;56.40;;;;;;4867130;29;20065;-70
2021/05/27 09:32:06;;;;;;;4.45;1.48;;;29.80;57.40;;;;;;4866867;29;20030;-70
2021/05/27 09:34:54;;;;;;;4.72;1.40;;;29.90;56.30;;;;;;4886489;29;20036;-70
2021/05/27 09:37:21;;;;;;;4.18;1.35;;;29.90;55.60;;;;;;4891273;29;20025;-71
2021/05/27 09:39:49;;;;;;;4.05;1.55;;;29.90;55.80;;;;;;4889340;29;20104;-71
2021/05/27 09:42:15;;;;;;;3.85;1.55;;;30.00;55.00;;;;;;4885843;29;20472;-70
2021/05/27 09:44:41;;;;;;;3.92;1.88;;;30.00;53.80;;;;;;4894662;29;20032;-70
2021/05/27 09:47:07;;;;;;;4.68;1.80;;;30.00;53.50;;;;;;4890028;29;20028;-70
2021/05/27 09:49:34;;;;;;;4.63;1.60;;;29.60;50.30;;;;;;4892629;29;20035;-73
2021/05/27 09:52:19;;;;;;;5.53;1.60;;;29.20;51.30;;;;;;4880724;29;20758;-76
2021/05/27 09:54:56;;;;;;;4.18;1.50;;;28.60;52.60;;;;;;4881420;29;20378;-70
2021/05/27 09:57:27;;;;;;;4.55;1.58;;;28.10;51.70;;;;;;4876271;29;20021;-70
2021/05/27 09:59:55;;;;;;;3.30;1.30;;;27.50;51.70;;;;;;4866525;29;20393;-76
2021/05/27 10:02:22;;;;;;;4.57;1.75;;;27.00;51.80;;;;;;4866079;29;20025;-71
2021/05/27 10:05:08;;;;;;;6.20;2.30;;;26.60;51.60;;;;;;4866244;29;20394;-71
2021/05/27 10:07:49;;;;;;;5.00;1.60;;;26.10;51.50;;;;;;4874275;29;20556;-70
2021/05/27 10:10:20;;;;;;;5.25;1.80;;;25.70;52.00;;;;;;4880466;29;20112;-71
2021/05/27 10:12:48;;;;;;;3.10;1.40;;;25.30;52.60;;;;;;4866354;29;20497;-71
2021/05/27 10:15:24;;;;;;;4.50;1.65;;;25.00;52.50;;;;;;4865977;29;20022;-70
2021/05/27 10:17:53;;;;;;;3.75;1.60;;;24.70;53.00;;;;;;4866287;29;20033;-69
2021/05/27 10:20:21;;;;;;;4.82;1.35;;;24.50;53.60;;;;;;4866173;29;20030;-70
2021/05/27 10:22:48;;;;;;;3.35;1.73;;;24.30;53.00;;;;;;4849343;29;20030;-70
2021/05/27 10:25:15;;;;;;;4.28;1.98;;;24.10;52.70;;;;;;4866246;29;20041;-69
2021/05/27 10:27:45;;;;;;;5.43;1.80;;;23.90;53.30;;;;;;4865945;29;20085;-70
2021/05/27 10:30:12;;;;;;;3.58;1.70;;;23.70;53.90;;;;;;4866049;29;20464;-70
2021/05/27 10:32:48;;;;;;;3.72;1.70;;;23.60;54.10;;;;;;4865568;29;20484;-70
2021/05/27 10:35:15;;;;;;;3.58;1.70;;;23.50;53.90;;;;;;4865724;29;20033;-69
2021/05/27 10:37:42;;;;;;;7.50;1.77;;;23.40;54.60;;;;;;4866003;29;20029;-69
2021/05/27 10:40:11;;;;;;;3.85;1.65;;;23.40;53.80;;;;;;4865827;29;20085;-69
2021/05/27 10:42:55;;;;;;;4.07;1.60;;;23.40;54.40;;;;;;4867715;29;20033;-69
2021/05/27 10:45:26;;;;;;;4.82;1.85;;;23.40;55.20;;;;;;4884437;29;20040;-70
2021/05/27 10:48:14;;;;;;;3.47;1.63;;;23.50;54.60;;;;;;4866319;29;20038;-69
2021/05/27 10:53:42;;;;;;;4.07;2.10;;;24.10;54.40;;;;;;4856730;29;20056;-70
2021/05/27 10:56:10;;;;;;;4.63;1.73;;;24.40;54.80;;;;;;4877737;29;20026;-69
2021/05/27 11:01:16;;;;;;;3.90;1.83;;;24.90;54.00;;;;;;4865466;29;20532;-69
2021/05/27 11:03:46;;;;;;;3.78;1.63;;;25.00;54.10;;;;;;4864618;29;20037;-69
2021/05/27 11:06:30;;;;;;;5.03;2.00;;;24.90;53.60;;;;;;4874893;29;20049;-69
2021/05/27 11:09:13;;;;;;;4.85;1.95;;;24.80;53.70;;;;;;4870912;29;20072;-69
2021/05/27 11:11:47;;;;;;;6.07;2.38;;;24.60;53.30;;;;;;4869175;29;20117;-69
2021/05/27 11:14:40;;;;;;;4.32;2.03;;;24.40;54.20;;;;;;4865483;29;20108;-69
2021/05/27 11:17:06;;;;;;;3.85;2.13;;;24.30;53.80;;;;;;4865155;29;20037;-69
2021/05/27 11:20:03;;;;;;;3.30;1.90;;;24.10;52.40;;;;;;4865160;29;20022;-69
2021/05/27 11:27:49;;;;;;;4.65;2.35;;;23.40;53.30;;;;;;4864659;29;20033;-70
2021/05/27 11:30:17;;;;;;;6.43;2.78;;;23.20;53.30;;;;;;4864688;29;20036;-69
2021/05/27 11:32:45;;;;;;;4.60;2.28;;;23.10;53.00;;;;;;4864311;29;20033;-69
2021/05/27 11:35:12;;;;;;;6.47;2.30;;;22.90;53.00;;;;;;4873618;29;20059;-69
2021/05/27 11:37:40;;;;;;;5.85;2.30;;;22.80;53.90;;;;;;4867964;29;20025;-69
2021/05/27 11:40:08;;;;;;;4.90;2.25;;;22.60;54.00;;;;;;4864615;29;20052;-69
2021/05/27 11:42:35;;;;;;;5.15;2.47;;;22.60;53.90;;;;;;4866333;29;20084;-69
2021/05/27 11:45:05;;;;;;;6.40;2.35;;;22.50;53.70;;;;;;4882945;29;20037;-69
2021/05/27 11:47:31;;;;;;;5.25;2.25;;;22.40;53.70;;;;;;4866111;29;20115;-69
2021/05/27 11:50:01;;;;;;;5.05;2.30;;;22.40;54.70;;;;;;4874373;29;20081;-69
2021/05/27 11:52:27;;;;;;;5.25;2.50;;;22.30;54.80;;;;;;4864463;29;20036;-70
2021/05/27 11:54:53;;;;;;;4.45;2.33;;;22.30;54.40;;;;;;4864408;29;20448;-70
2021/05/27 11:57:20;;;;;;;5.07;2.60;;;22.20;54.40;;;;;;4864433;29;20026;-70
2021/05/27 12:00:10;;;;;;;4.90;2.38;;;22.20;55.30;;;;;;4864386;29;20038;-69
2021/05/27 12:02:50;;;;;;;4.20;2.08;;;22.20;55.80;;;;;;4870790;29;20036;-69
2021/05/27 12:05:29;;;;;;;3.80;2.08;;;22.20;54.80;;;;;;4877475;29;20089;-69
2021/05/27 12:08:10;;;;;;;4.40;2.15;;;22.20;54.90;;;;;;4879683;29;20504;-71
2021/05/27 12:10:38;;;;;;;4.45;2.38;;;22.20;55.10;;;;;;4870063;29;20048;-72
2021/05/27 12:13:19;;;;;;;5.15;2.50;;;22.20;55.30;;;;;;4883111;29;20025;-71
2021/05/27 12:15:46;;;;;;;5.85;2.20;;;22.30;55.40;;;;;;4886699;29;20058;-71
2021/05/27 12:18:16;;;;;;;6.13;2.42;;;22.30;55.40;;;;;;4886212;29;20060;-71
2021/05/27 12:20:48;;;;;;;5.60;2.67;;;22.30;55.60;;;;;;4886709;29;20031;-69
2021/05/27 12:23:16;;;;;;;4.23;2.13;;;22.30;55.60;;;;;;4885336;29;20124;-70
2021/05/27 12:25:47;;;;;;;4.50;2.40;;;22.40;56.00;;;;;;4886784;29;20037;-69
2021/05/27 12:28:16;;;;;;;5.63;2.33;;;22.40;55.90;;;;;;4886383;29;20029;-69
2021/05/27 12:30:47;;;;;;;5.13;2.15;;;22.40;56.40;;;;;;4886331;29;20057;-69
2021/05/27 12:33:18;;;;;;;5.05;2.83;;;22.40;56.20;;;;;;4885926;29;20025;-69
2021/05/27 12:35:44;;;;;;;7.43;2.50;;;22.50;56.30;;;;;;4886210;29;20033;-69
2021/05/27 12:38:22;;;;;;;6.95;2.70;;;22.50;56.80;;;;;;4886338;29;20017;-71
2021/05/27 12:40:58;;;;;;;5.60;2.35;;;22.50;56.20;;;;;;4883555;29;20025;-71
2021/05/27 12:43:38;;;;;;;4.65;2.65;;;22.50;55.80;;;;;;4884151;29;20014;-71
2021/05/27 12:46:06;;;;;;;6.40;2.72;;;22.50;55.50;;;;;;4874012;29;20032;-72
2021/05/27 12:48:34;;;;;;;5.93;2.90;;;22.50;54.80;;;;;;4869011;29;20097;-70
2021/05/27 12:51:07;;;;;;;5.45;2.20;;;22.50;55.00;;;;;;4873317;29;20116;-70
2021/05/27 12:53:37;;;;;;;4.93;2.40;;;22.40;54.80;;;;;;4886302;29;20036;-70
2021/05/27 12:56:22;;;;;;;5.22;2.75;;;22.30;55.10;;;;;;4874487;29;20076;-70
2021/05/27 12:58:53;;;;;;;6.50;2.70;;;22.30;55.10;;;;;;4885825;29;20033;-69
2021/05/27 13:01:36;;;;;;;5.63;2.60;;;22.30;55.60;;;;;;4885683;29;20025;-70
2021/05/27 13:04:07;;;;;;;6.05;2.80;;;22.30;55.30;;;;;;4873017;29;20024;-70
2021/05/27 13:06:40;;;;;;;5.22;2.60;;;22.30;55.70;;;;;;4885988;29;20052;-70
2021/05/27 13:09:15;;;;;;;6.07;2.83;;;22.30;55.90;;;;;;4868467;29;20057;-69
2021/05/27 13:11:44;;;;;;;4.53;2.60;;;22.30;55.90;;;;;;4881774;29;20068;-69
2021/05/27 13:14:17;;;;;;;6.32;2.90;;;22.30;55.30;;;;;;4885918;29;20030;-69
2021/05/27 13:16:48;;;;;;;5.97;2.83;;;22.20;55.60;;;;;;4883111;29;20033;-71